sensor_id;sensor_type;location;lat;lon;timestamp;P1;durP1;ratioP1;P2;durP2;ratioP2
51949;SDS011;37974;53.218;6.640;2023-08-01T00:00:29;24.63;;;7.28;;
51949;SDS011;37974;53.218;6.640;2023-08-01T00:02:54;29.23;;;6.97;;
51949;SDS011;37974;53.218;6.640;2023-08-01T00:05:20;26.30;;;6.88;;
51949;SDS011;37974;53.218;6.640;2023-08-01T00:07:46;22.60;;;6.65;;
51949;SDS011;37974;53.218;6.640;2023-08-01T00:10:12;19.17;;;5.43;;
51949;SDS011;37974;53.218;6.640;2023-08-01T00:12:37;21.23;;;5.10;;
51949;SDS011;37974;53.218;6.640;2023-08-01T00:15:03;19.98;;;5.47;;
51949;SDS011;37974;53.218;6.640;2023-08-01T00:17:29;22.83;;;5.00;;
51949;SDS011;37974;53.218;6.640;2023-08-01T00:19:55;16.58;;;4.80;;
51949;SDS011;37974;53.218;6.640;2023-08-01T00:22:21;24.55;;;6.35;;
51949;SDS011;37974;53.218;6.640;2023-08-01T00:24:47;19.92;;;6.00;;
51949;SDS011;37974;53.218;6.640;2023-08-01T00:27:13;26.38;;;5.85;;
51949;SDS011;37974;53.218;6.640;2023-08-01T00:29:39;19.00;;;5.32;;
51949;SDS011;37974;53.218;6.640;2023-08-01T00:32:04;25.40;;;5.35;;
51949;SDS011;37974;53.218;6.640;2023-08-01T00:34:30;16.33;;;4.90;;
51949;SDS011;37974;53.218;6.640;2023-08-01T00:36:56;19.42;;;5.07;;
51949;SDS011;37974;53.218;6.640;2023-08-01T00:39:23;19.92;;;5.55;;
51949;SDS011;37974;53.218;6.640;2023-08-01T00:41:48;16.67;;;4.82;;
51949;SDS011;37974;53.218;6.640;2023-08-01T00:44:14;20.63;;;4.95;;
51949;SDS011;37974;53.218;6.640;2023-08-01T00:46:40;17.60;;;4.72;;
51949;SDS011;37974;53.218;6.640;2023-08-01T00:49:06;19.17;;;4.90;;
51949;SDS011;37974;53.218;6.640;2023-08-01T00:51:33;12.63;;;4.20;;
51949;SDS011;37974;53.218;6.640;2023-08-01T00:53:59;16.20;;;5.38;;
51949;SDS011;37974;53.218;6.640;2023-08-01T00:56:25;21.95;;;5.40;;
51949;SDS011;37974;53.218;6.640;2023-08-01T00:58:51;22.00;;;4.95;;
51949;SDS011;37974;53.218;6.640;2023-08-01T01:01:17;16.45;;;5.30;;
51949;SDS011;37974;53.218;6.640;2023-08-01T01:03:43;21.33;;;5.18;;
51949;SDS011;37974;53.218;6.640;2023-08-01T01:06:11;17.00;;;5.15;;
51949;SDS011;37974;53.218;6.640;2023-08-01T01:08:58;19.98;;;5.68;;
51949;SDS011;37974;53.218;6.640;2023-08-01T01:11:24;14.85;;;5.00;;
51949;SDS011;37974;53.218;6.640;2023-08-01T01:13:49;15.25;;;5.47;;
51949;SDS011;37974;53.218;6.640;2023-08-01T01:16:18;22.17;;;6.20;;
51949;SDS011;37974;53.218;6.640;2023-08-01T01:18:45;12.77;;;4.35;;
51949;SDS011;37974;53.218;6.640;2023-08-01T01:21:10;15.73;;;4.82;;
51949;SDS011;37974;53.218;6.640;2023-08-01T01:23:36;21.55;;;5.53;;
51949;SDS011;37974;53.218;6.640;2023-08-01T01:26:03;22.92;;;6.13;;
51949;SDS011;37974;53.218;6.640;2023-08-01T01:28:31;17.35;;;4.97;;
51949;SDS011;37974;53.218;6.640;2023-08-01T01:30:58;13.25;;;4.95;;
51949;SDS011;37974;53.218;6.640;2023-08-01T01:33:25;21.67;;;5.53;;
51949;SDS011;37974;53.218;6.640;2023-08-01T01:35:51;11.57;;;5.45;;
51949;SDS011;37974;53.218;6.640;2023-08-01T01:38:17;14.73;;;5.32;;
51949;SDS011;37974;53.218;6.640;2023-08-01T01:40:42;22.08;;;5.22;;
51949;SDS011;37974;53.218;6.640;2023-08-01T01:43:08;15.75;;;5.30;;
51949;SDS011;37974;53.218;6.640;2023-08-01T01:45:34;16.27;;;5.97;;
51949;SDS011;37974;53.218;6.640;2023-08-01T01:48:00;15.75;;;5.32;;
51949;SDS011;37974;53.218;6.640;2023-08-01T01:50:26;21.48;;;5.55;;
51949;SDS011;37974;53.218;6.640;2023-08-01T01:52:51;16.58;;;5.35;;
51949;SDS011;37974;53.218;6.640;2023-08-01T01:55:17;17.50;;;6.03;;
51949;SDS011;37974;53.218;6.640;2023-08-01T01:57:43;15.60;;;6.97;;
51949;SDS011;37974;53.218;6.640;2023-08-01T02:00:09;19.45;;;7.32;;
51949;SDS011;37974;53.218;6.640;2023-08-01T02:02:36;16.42;;;5.82;;
51949;SDS011;37974;53.218;6.640;2023-08-01T02:05:01;14.52;;;5.25;;
51949;SDS011;37974;53.218;6.640;2023-08-01T02:07:29;14.52;;;5.70;;
51949;SDS011;37974;53.218;6.640;2023-08-01T02:09:55;18.02;;;5.53;;
51949;SDS011;37974;53.218;6.640;2023-08-01T02:12:20;19.02;;;6.40;;
51949;SDS011;37974;53.218;6.640;2023-08-01T02:14:46;17.27;;;6.00;;
51949;SDS011;37974;53.218;6.640;2023-08-01T02:17:12;17.48;;;6.80;;
51949;SDS011;37974;53.218;6.640;2023-08-01T02:19:38;23.42;;;7.57;;
51949;SDS011;37974;53.218;6.640;2023-08-01T02:22:03;20.15;;;7.78;;
51949;SDS011;37974;53.218;6.640;2023-08-01T02:24:29;22.98;;;9.65;;
51949;SDS011;37974;53.218;6.640;2023-08-01T02:26:55;23.30;;;8.40;;
51949;SDS011;37974;53.218;6.640;2023-08-01T02:29:21;20.73;;;8.65;;
51949;SDS011;37974;53.218;6.640;2023-08-01T02:31:46;18.55;;;7.13;;
51949;SDS011;37974;53.218;6.640;2023-08-01T02:34:12;14.93;;;5.55;;
51949;SDS011;37974;53.218;6.640;2023-08-01T02:36:38;18.73;;;5.40;;
51949;SDS011;37974;53.218;6.640;2023-08-01T02:39:05;10.82;;;3.83;;
51949;SDS011;37974;53.218;6.640;2023-08-01T02:41:32;12.02;;;4.40;;
51949;SDS011;37974;53.218;6.640;2023-08-01T02:43:57;19.80;;;5.05;;
51949;SDS011;37974;53.218;6.640;2023-08-01T02:46:23;15.07;;;4.50;;
51949;SDS011;37974;53.218;6.640;2023-08-01T02:48:49;15.85;;;4.72;;
51949;SDS011;37974;53.218;6.640;2023-08-01T02:51:15;14.57;;;4.60;;
51949;SDS011;37974;53.218;6.640;2023-08-01T02:53:40;10.75;;;4.28;;
51949;SDS011;37974;53.218;6.640;2023-08-01T02:56:06;13.75;;;4.65;;
51949;SDS011;37974;53.218;6.640;2023-08-01T02:58:34;12.05;;;4.75;;
51949;SDS011;37974;53.218;6.640;2023-08-01T03:01:01;16.50;;;4.50;;
51949;SDS011;37974;53.218;6.640;2023-08-01T03:03:31;14.35;;;4.50;;
51949;SDS011;37974;53.218;6.640;2023-08-01T03:05:57;12.77;;;4.65;;
51949;SDS011;37974;53.218;6.640;2023-08-01T03:08:24;20.02;;;6.75;;
51949;SDS011;37974;53.218;6.640;2023-08-01T03:10:50;18.83;;;6.82;;
51949;SDS011;37974;53.218;6.640;2023-08-01T03:13:16;19.85;;;7.70;;
51949;SDS011;37974;53.218;6.640;2023-08-01T03:15:41;19.95;;;8.50;;
51949;SDS011;37974;53.218;6.640;2023-08-01T03:18:07;21.23;;;9.70;;
51949;SDS011;37974;53.218;6.640;2023-08-01T03:20:33;17.33;;;7.80;;
51949;SDS011;37974;53.218;6.640;2023-08-01T03:22:59;15.48;;;6.40;;
51949;SDS011;37974;53.218;6.640;2023-08-01T03:25:24;22.45;;;7.03;;
51949;SDS011;37974;53.218;6.640;2023-08-01T03:27:50;17.27;;;6.85;;
51949;SDS011;37974;53.218;6.640;2023-08-01T03:30:16;21.45;;;7.40;;
51949;SDS011;37974;53.218;6.640;2023-08-01T03:32:41;20.27;;;7.53;;
51949;SDS011;37974;53.218;6.640;2023-08-01T03:35:07;18.00;;;7.68;;
51949;SDS011;37974;53.218;6.640;2023-08-01T03:37:33;16.80;;;6.38;;
51949;SDS011;37974;53.218;6.640;2023-08-01T03:39:59;16.27;;;6.70;;
51949;SDS011;37974;53.218;6.640;2023-08-01T03:42:24;21.10;;;7.25;;
51949;SDS011;37974;53.218;6.640;2023-08-01T03:44:50;23.55;;;7.13;;
51949;SDS011;37974;53.218;6.640;2023-08-01T03:47:16;19.20;;;6.65;;
51949;SDS011;37974;53.218;6.640;2023-08-01T03:49:41;24.52;;;7.47;;
51949;SDS011;37974;53.218;6.640;2023-08-01T03:52:07;20.65;;;6.28;;
51949;SDS011;37974;53.218;6.640;2023-08-01T03:54:33;22.35;;;6.70;;
51949;SDS011;37974;53.218;6.640;2023-08-01T03:57:00;17.60;;;6.70;;
51949;SDS011;37974;53.218;6.640;2023-08-01T03:59:25;19.23;;;6.53;;
51949;SDS011;37974;53.218;6.640;2023-08-01T04:01:51;16.23;;;6.00;;
51949;SDS011;37974;53.218;6.640;2023-08-01T04:04:17;14.20;;;5.47;;
51949;SDS011;37974;53.218;6.640;2023-08-01T04:06:42;14.85;;;5.28;;
51949;SDS011;37974;53.218;6.640;2023-08-01T04:09:08;17.08;;;4.93;;
51949;SDS011;37974;53.218;6.640;2023-08-01T04:11:34;17.27;;;5.55;;
51949;SDS011;37974;53.218;6.640;2023-08-01T04:14:00;12.45;;;5.00;;
51949;SDS011;37974;53.218;6.640;2023-08-01T04:16:25;20.30;;;4.40;;
51949;SDS011;37974;53.218;6.640;2023-08-01T04:18:51;17.38;;;4.35;;
51949;SDS011;37974;53.218;6.640;2023-08-01T04:21:17;13.80;;;4.35;;
51949;SDS011;37974;53.218;6.640;2023-08-01T04:23:43;12.00;;;3.90;;
51949;SDS011;37974;53.218;6.640;2023-08-01T04:26:09;13.35;;;3.70;;
51949;SDS011;37974;53.218;6.640;2023-08-01T04:28:35;16.02;;;4.30;;
51949;SDS011;37974;53.218;6.640;2023-08-01T04:31:01;10.68;;;2.95;;
51949;SDS011;37974;53.218;6.640;2023-08-01T04:33:27;11.55;;;3.13;;
51949;SDS011;37974;53.218;6.640;2023-08-01T04:35:53;16.63;;;3.28;;
51949;SDS011;37974;53.218;6.640;2023-08-01T04:38:19;10.20;;;2.80;;
51949;SDS011;37974;53.218;6.640;2023-08-01T04:40:44;12.00;;;2.78;;
51949;SDS011;37974;53.218;6.640;2023-08-01T04:43:11;11.43;;;2.72;;
51949;SDS011;37974;53.218;6.640;2023-08-01T04:45:40;9.98;;;2.60;;
51949;SDS011;37974;53.218;6.640;2023-08-01T04:48:06;8.98;;;2.88;;
51949;SDS011;37974;53.218;6.640;2023-08-01T04:50:31;20.50;;;3.13;;
51949;SDS011;37974;53.218;6.640;2023-08-01T04:52:57;11.90;;;3.40;;
51949;SDS011;37974;53.218;6.640;2023-08-01T04:55:23;14.38;;;3.10;;
51949;SDS011;37974;53.218;6.640;2023-08-01T04:57:48;13.43;;;2.85;;
51949;SDS011;37974;53.218;6.640;2023-08-01T05:00:14;13.35;;;3.10;;
51949;SDS011;37974;53.218;6.640;2023-08-01T05:02:40;13.85;;;2.75;;
51949;SDS011;37974;53.218;6.640;2023-08-01T05:05:06;13.88;;;3.00;;
51949;SDS011;37974;53.218;6.640;2023-08-01T05:07:32;12.00;;;2.70;;
51949;SDS011;37974;53.218;6.640;2023-08-01T05:09:57;18.02;;;3.03;;
51949;SDS011;37974;53.218;6.640;2023-08-01T05:12:23;11.90;;;3.05;;
51949;SDS011;37974;53.218;6.640;2023-08-01T05:14:49;13.82;;;2.75;;
51949;SDS011;37974;53.218;6.640;2023-08-01T05:17:15;13.98;;;2.92;;
51949;SDS011;37974;53.218;6.640;2023-08-01T05:19:41;13.88;;;2.50;;
51949;SDS011;37974;53.218;6.640;2023-08-01T05:22:06;12.95;;;2.50;;
51949;SDS011;37974;53.218;6.640;2023-08-01T05:24:32;20.05;;;2.35;;
51949;SDS011;37974;53.218;6.640;2023-08-01T05:26:58;11.32;;;2.42;;
51949;SDS011;37974;53.218;6.640;2023-08-01T05:29:23;15.93;;;2.05;;
51949;SDS011;37974;53.218;6.640;2023-08-01T05:31:49;9.23;;;2.00;;
51949;SDS011;37974;53.218;6.640;2023-08-01T05:34:15;8.25;;;2.00;;
51949;SDS011;37974;53.218;6.640;2023-08-01T05:36:41;10.90;;;2.33;;
51949;SDS011;37974;53.218;6.640;2023-08-01T05:39:06;9.45;;;2.22;;
51949;SDS011;37974;53.218;6.640;2023-08-01T05:41:32;8.30;;;1.95;;
51949;SDS011;37974;53.218;6.640;2023-08-01T05:43:58;11.82;;;2.60;;
51949;SDS011;37974;53.218;6.640;2023-08-01T05:46:24;11.63;;;2.53;;
51949;SDS011;37974;53.218;6.640;2023-08-01T05:48:50;7.00;;;1.88;;
51949;SDS011;37974;53.218;6.640;2023-08-01T05:51:15;10.80;;;2.10;;
51949;SDS011;37974;53.218;6.640;2023-08-01T05:53:41;9.23;;;2.90;;
51949;SDS011;37974;53.218;6.640;2023-08-01T05:56:07;13.88;;;3.70;;
51949;SDS011;37974;53.218;6.640;2023-08-01T05:58:33;10.23;;;3.72;;
51949;SDS011;37974;53.218;6.640;2023-08-01T06:00:59;9.98;;;3.45;;
51949;SDS011;37974;53.218;6.640;2023-08-01T06:03:24;13.48;;;3.85;;
51949;SDS011;37974;53.218;6.640;2023-08-01T06:05:50;9.82;;;3.80;;
51949;SDS011;37974;53.218;6.640;2023-08-01T06:08:16;10.65;;;3.83;;
51949;SDS011;37974;53.218;6.640;2023-08-01T06:10:41;15.40;;;3.78;;
51949;SDS011;37974;53.218;6.640;2023-08-01T06:13:08;9.30;;;3.28;;
51949;SDS011;37974;53.218;6.640;2023-08-01T06:15:33;6.45;;;2.63;;
51949;SDS011;37974;53.218;6.640;2023-08-01T06:17:59;7.35;;;2.40;;
51949;SDS011;37974;53.218;6.640;2023-08-01T06:20:27;9.68;;;2.35;;
51949;SDS011;37974;53.218;6.640;2023-08-01T06:22:53;10.88;;;2.45;;
51949;SDS011;37974;53.218;6.640;2023-08-01T06:25:19;6.80;;;2.00;;
51949;SDS011;37974;53.218;6.640;2023-08-01T06:27:45;8.07;;;2.15;;
51949;SDS011;37974;53.218;6.640;2023-08-01T06:30:10;7.07;;;2.10;;
51949;SDS011;37974;53.218;6.640;2023-08-01T06:32:36;9.48;;;2.40;;
51949;SDS011;37974;53.218;6.640;2023-08-01T06:35:02;6.05;;;2.17;;
51949;SDS011;37974;53.218;6.640;2023-08-01T06:37:28;6.38;;;2.08;;
51949;SDS011;37974;53.218;6.640;2023-08-01T06:39:54;7.57;;;1.80;;
51949;SDS011;37974;53.218;6.640;2023-08-01T06:42:21;8.43;;;1.92;;
51949;SDS011;37974;53.218;6.640;2023-08-01T06:44:47;8.10;;;1.92;;
51949;SDS011;37974;53.218;6.640;2023-08-01T06:47:13;5.50;;;1.80;;
51949;SDS011;37974;53.218;6.640;2023-08-01T06:49:39;5.10;;;1.65;;
51949;SDS011;37974;53.218;6.640;2023-08-01T06:52:04;7.53;;;1.77;;
51949;SDS011;37974;53.218;6.640;2023-08-01T06:54:31;4.97;;;1.38;;
51949;SDS011;37974;53.218;6.640;2023-08-01T06:56:57;6.40;;;1.33;;
51949;SDS011;37974;53.218;6.640;2023-08-01T06:59:24;6.70;;;1.85;;
51949;SDS011;37974;53.218;6.640;2023-08-01T07:01:49;5.30;;;1.70;;
51949;SDS011;37974;53.218;6.640;2023-08-01T07:04:15;9.30;;;1.80;;
51949;SDS011;37974;53.218;6.640;2023-08-01T07:06:41;5.95;;;1.55;;
51949;SDS011;37974;53.218;6.640;2023-08-01T07:09:06;6.68;;;1.83;;
51949;SDS011;37974;53.218;6.640;2023-08-01T07:11:32;7.68;;;1.83;;
51949;SDS011;37974;53.218;6.640;2023-08-01T07:13:58;6.35;;;1.40;;
51949;SDS011;37974;53.218;6.640;2023-08-01T07:16:24;6.72;;;1.70;;
51949;SDS011;37974;53.218;6.640;2023-08-01T07:18:50;6.47;;;1.75;;
51949;SDS011;37974;53.218;6.640;2023-08-01T07:21:16;4.68;;;1.20;;
51949;SDS011;37974;53.218;6.640;2023-08-01T07:23:42;6.65;;;1.38;;
51949;SDS011;37974;53.218;6.640;2023-08-01T07:26:08;6.28;;;1.17;;
51949;SDS011;37974;53.218;6.640;2023-08-01T07:28:34;6.88;;;1.15;;
51949;SDS011;37974;53.218;6.640;2023-08-01T07:31:04;6.85;;;1.10;;
51949;SDS011;37974;53.218;6.640;2023-08-01T07:33:31;6.53;;;1.40;;
51949;SDS011;37974;53.218;6.640;2023-08-01T07:35:58;8.85;;;1.50;;
51949;SDS011;37974;53.218;6.640;2023-08-01T07:38:24;7.68;;;1.20;;
51949;SDS011;37974;53.218;6.640;2023-08-01T07:40:52;10.38;;;1.67;;
51949;SDS011;37974;53.218;6.640;2023-08-01T07:43:19;8.50;;;1.05;;
51949;SDS011;37974;53.218;6.640;2023-08-01T07:45:45;10.38;;;1.65;;
51949;SDS011;37974;53.218;6.640;2023-08-01T07:48:11;7.53;;;1.17;;
51949;SDS011;37974;53.218;6.640;2023-08-01T07:50:37;10.50;;;1.55;;
51949;SDS011;37974;53.218;6.640;2023-08-01T07:53:03;8.68;;;1.63;;
51949;SDS011;37974;53.218;6.640;2023-08-01T07:55:28;8.15;;;1.05;;
51949;SDS011;37974;53.218;6.640;2023-08-01T07:57:58;11.88;;;2.03;;
51949;SDS011;37974;53.218;6.640;2023-08-01T08:00:23;7.50;;;1.15;;
51949;SDS011;37974;53.218;6.640;2023-08-01T08:02:49;6.97;;;1.13;;
51949;SDS011;37974;53.218;6.640;2023-08-01T08:05:15;6.28;;;0.90;;
51949;SDS011;37974;53.218;6.640;2023-08-01T08:07:41;8.70;;;0.90;;
51949;SDS011;37974;53.218;6.640;2023-08-01T08:10:06;7.85;;;1.00;;
51949;SDS011;37974;53.218;6.640;2023-08-01T08:12:32;8.07;;;1.05;;
51949;SDS011;37974;53.218;6.640;2023-08-01T08:14:58;8.15;;;0.80;;
51949;SDS011;37974;53.218;6.640;2023-08-01T08:17:24;3.83;;;0.90;;
51949;SDS011;37974;53.218;6.640;2023-08-01T08:19:49;4.93;;;0.90;;
51949;SDS011;37974;53.218;6.640;2023-08-01T08:22:15;5.35;;;0.93;;
51949;SDS011;37974;53.218;6.640;2023-08-01T08:24:41;5.72;;;1.02;;
51949;SDS011;37974;53.218;6.640;2023-08-01T08:27:06;6.50;;;0.93;;
51949;SDS011;37974;53.218;6.640;2023-08-01T08:29:32;7.43;;;1.02;;
51949;SDS011;37974;53.218;6.640;2023-08-01T08:31:58;4.55;;;0.80;;
51949;SDS011;37974;53.218;6.640;2023-08-01T08:34:24;7.43;;;1.17;;
51949;SDS011;37974;53.218;6.640;2023-08-01T08:36:50;8.20;;;1.33;;
51949;SDS011;37974;53.218;6.640;2023-08-01T08:39:16;8.90;;;1.10;;
51949;SDS011;37974;53.218;6.640;2023-08-01T08:41:47;6.80;;;1.00;;
51949;SDS011;37974;53.218;6.640;2023-08-01T08:44:14;7.38;;;1.20;;
51949;SDS011;37974;53.218;6.640;2023-08-01T08:46:46;11.88;;;1.40;;
51949;SDS011;37974;53.218;6.640;2023-08-01T08:49:15;7.00;;;1.00;;
51949;SDS011;37974;53.218;6.640;2023-08-01T08:51:42;7.47;;;1.17;;
51949;SDS011;37974;53.218;6.640;2023-08-01T08:54:09;8.18;;;1.20;;
51949;SDS011;37974;53.218;6.640;2023-08-01T08:56:36;7.60;;;1.25;;
51949;SDS011;37974;53.218;6.640;2023-08-01T08:59:03;6.47;;;1.10;;
51949;SDS011;37974;53.218;6.640;2023-08-01T09:01:29;8.43;;;1.30;;
51949;SDS011;37974;53.218;6.640;2023-08-01T09:03:57;7.43;;;1.10;;
51949;SDS011;37974;53.218;6.640;2023-08-01T09:06:34;5.97;;;1.52;;
51949;SDS011;37974;53.218;6.640;2023-08-01T09:09:05;6.97;;;1.00;;
51949;SDS011;37974;53.218;6.640;2023-08-01T09:11:50;10.15;;;1.30;;
51949;SDS011;37974;53.218;6.640;2023-08-01T09:14:18;8.50;;;1.23;;
51949;SDS011;37974;53.218;6.640;2023-08-01T09:16:45;10.43;;;2.17;;
51949;SDS011;37974;53.218;6.640;2023-08-01T09:19:16;6.32;;;1.23;;
51949;SDS011;37974;53.218;6.640;2023-08-01T09:21:46;5.72;;;1.13;;
51949;SDS011;37974;53.218;6.640;2023-08-01T09:24:13;12.32;;;1.60;;
51949;SDS011;37974;53.218;6.640;2023-08-01T09:26:43;5.95;;;0.98;;
51949;SDS011;37974;53.218;6.640;2023-08-01T09:29:10;6.60;;;1.10;;
51949;SDS011;37974;53.218;6.640;2023-08-01T09:31:36;4.20;;;0.90;;
51949;SDS011;37974;53.218;6.640;2023-08-01T09:34:06;8.52;;;1.45;;
51949;SDS011;37974;53.218;6.640;2023-08-01T09:36:47;9.32;;;1.23;;
51949;SDS011;37974;53.218;6.640;2023-08-01T09:39:21;5.78;;;1.00;;
51949;SDS011;37974;53.218;6.640;2023-08-01T09:41:56;9.10;;;1.10;;
51949;SDS011;37974;53.218;6.640;2023-08-01T09:44:23;10.60;;;1.45;;
51949;SDS011;37974;53.218;6.640;2023-08-01T09:46:58;7.63;;;0.90;;
51949;SDS011;37974;53.218;6.640;2023-08-01T09:49:26;6.57;;;1.23;;
51949;SDS011;37974;53.218;6.640;2023-08-01T09:51:53;5.90;;;0.90;;
51949;SDS011;37974;53.218;6.640;2023-08-01T09:54:20;5.55;;;0.98;;
51949;SDS011;37974;53.218;6.640;2023-08-01T09:56:47;7.88;;;0.93;;
51949;SDS011;37974;53.218;6.640;2023-08-01T09:59:18;7.35;;;0.90;;
51949;SDS011;37974;53.218;6.640;2023-08-01T10:01:47;4.50;;;1.20;;
51949;SDS011;37974;53.218;6.640;2023-08-01T10:04:15;4.75;;;0.80;;
51949;SDS011;37974;53.218;6.640;2023-08-01T10:06:49;4.95;;;1.20;;
51949;SDS011;37974;53.218;6.640;2023-08-01T10:09:24;6.25;;;1.20;;
51949;SDS011;37974;53.218;6.640;2023-08-01T10:11:50;7.97;;;1.30;;
51949;SDS011;37974;53.218;6.640;2023-08-01T10:14:18;6.15;;;0.90;;
51949;SDS011;37974;53.218;6.640;2023-08-01T10:16:45;11.20;;;1.52;;
51949;SDS011;37974;53.218;6.640;2023-08-01T10:19:12;6.82;;;1.10;;
51949;SDS011;37974;53.218;6.640;2023-08-01T10:21:39;5.75;;;1.10;;
51949;SDS011;37974;53.218;6.640;2023-08-01T10:24:07;7.80;;;1.17;;
51949;SDS011;37974;53.218;6.640;2023-08-01T10:26:33;6.57;;;1.10;;
51949;SDS011;37974;53.218;6.640;2023-08-01T10:29:00;7.80;;;1.00;;
51949;SDS011;37974;53.218;6.640;2023-08-01T10:31:27;9.50;;;1.23;;
51949;SDS011;37974;53.218;6.640;2023-08-01T10:34:02;8.63;;;1.08;;
51949;SDS011;37974;53.218;6.640;2023-08-01T10:36:32;6.82;;;1.00;;
51949;SDS011;37974;53.218;6.640;2023-08-01T10:38:59;7.55;;;1.05;;
51949;SDS011;37974;53.218;6.640;2023-08-01T10:47:11;9.27;;;1.45;;
51949;SDS011;37974;53.218;6.640;2023-08-01T10:49:38;7.05;;;1.40;;
51949;SDS011;37974;53.218;6.640;2023-08-01T10:52:18;9.95;;;1.75;;
51949;SDS011;37974;53.218;6.640;2023-08-01T10:54:48;9.27;;;1.55;;
51949;SDS011;37974;53.218;6.640;2023-08-01T10:57:28;5.57;;;1.10;;
51949;SDS011;37974;53.218;6.640;2023-08-01T10:59:56;9.10;;;1.27;;
51949;SDS011;37974;53.218;6.640;2023-08-01T11:02:23;8.20;;;1.30;;
51949;SDS011;37974;53.218;6.640;2023-08-01T11:05:06;12.82;;;1.20;;
51949;SDS011;37974;53.218;6.640;2023-08-01T11:07:33;7.60;;;0.98;;
51949;SDS011;37974;53.218;6.640;2023-08-01T11:12:33;7.38;;;1.25;;
51949;SDS011;37974;53.218;6.640;2023-08-01T11:15:05;6.22;;;1.20;;
51949;SDS011;37974;53.218;6.640;2023-08-01T11:17:38;6.50;;;1.00;;
51949;SDS011;37974;53.218;6.640;2023-08-01T11:20:05;8.13;;;1.02;;
51949;SDS011;37974;53.218;6.640;2023-08-01T11:22:33;5.95;;;1.05;;
51949;SDS011;37974;53.218;6.640;2023-08-01T11:25:00;10.80;;;1.23;;
51949;SDS011;37974;53.218;6.640;2023-08-01T11:27:26;4.30;;;0.73;;
51949;SDS011;37974;53.218;6.640;2023-08-01T11:29:52;10.27;;;1.00;;
51949;SDS011;37974;53.218;6.640;2023-08-01T11:32:18;11.00;;;1.13;;
51949;SDS011;37974;53.218;6.640;2023-08-01T11:34:48;5.68;;;0.68;;
51949;SDS011;37974;53.218;6.640;2023-08-01T11:37:15;7.85;;;1.00;;
51949;SDS011;37974;53.218;6.640;2023-08-01T11:39:43;8.40;;;1.20;;
51949;SDS011;37974;53.218;6.640;2023-08-01T11:42:16;4.75;;;1.05;;
51949;SDS011;37974;53.218;6.640;2023-08-01T11:44:42;3.50;;;0.98;;
51949;SDS011;37974;53.218;6.640;2023-08-01T11:47:16;7.30;;;1.55;;
51949;SDS011;37974;53.218;6.640;2023-08-01T11:49:47;7.78;;;1.17;;
51949;SDS011;37974;53.218;6.640;2023-08-01T11:52:24;4.05;;;0.77;;
51949;SDS011;37974;53.218;6.640;2023-08-01T11:54:51;6.20;;;0.75;;
51949;SDS011;37974;53.218;6.640;2023-08-01T11:57:17;6.90;;;1.02;;
51949;SDS011;37974;53.218;6.640;2023-08-01T11:59:50;7.43;;;0.85;;
51949;SDS011;37974;53.218;6.640;2023-08-01T12:02:24;4.07;;;0.70;;
51949;SDS011;37974;53.218;6.640;2023-08-01T12:04:51;8.38;;;1.05;;
51949;SDS011;37974;53.218;6.640;2023-08-01T12:07:19;6.35;;;1.02;;
51949;SDS011;37974;53.218;6.640;2023-08-01T12:09:57;6.20;;;1.20;;
51949;SDS011;37974;53.218;6.640;2023-08-01T12:12:46;8.35;;;0.90;;
51949;SDS011;37974;53.218;6.640;2023-08-01T12:15:16;7.82;;;1.23;;
51949;SDS011;37974;53.218;6.640;2023-08-01T12:17:42;4.95;;;0.80;;
51949;SDS011;37974;53.218;6.640;2023-08-01T12:20:08;7.88;;;1.27;;
51949;SDS011;37974;53.218;6.640;2023-08-01T12:22:33;6.82;;;0.90;;
51949;SDS011;37974;53.218;6.640;2023-08-01T12:25:00;7.35;;;0.93;;
51949;SDS011;37974;53.218;6.640;2023-08-01T12:27:27;5.80;;;0.77;;
51949;SDS011;37974;53.218;6.640;2023-08-01T12:29:53;11.80;;;1.77;;
51949;SDS011;37974;53.218;6.640;2023-08-01T12:32:25;11.23;;;1.35;;
51949;SDS011;37974;53.218;6.640;2023-08-01T12:34:51;6.07;;;1.10;;
51949;SDS011;37974;53.218;6.640;2023-08-01T12:37:17;12.45;;;1.42;;
51949;SDS011;37974;53.218;6.640;2023-08-01T12:39:42;8.75;;;1.35;;
51949;SDS011;37974;53.218;6.640;2023-08-01T12:42:11;7.32;;;1.20;;
51949;SDS011;37974;53.218;6.640;2023-08-01T12:44:38;6.43;;;1.00;;
51949;SDS011;37974;53.218;6.640;2023-08-01T12:47:05;8.02;;;1.48;;
51949;SDS011;37974;53.218;6.640;2023-08-01T12:49:35;5.60;;;0.88;;
51949;SDS011;37974;53.218;6.640;2023-08-01T12:52:02;6.10;;;1.00;;
51949;SDS011;37974;53.218;6.640;2023-08-01T12:54:28;6.07;;;0.90;;
51949;SDS011;37974;53.218;6.640;2023-08-01T12:56:54;8.40;;;1.15;;
51949;SDS011;37974;53.218;6.640;2023-08-01T12:59:19;10.27;;;1.85;;
51949;SDS011;37974;53.218;6.640;2023-08-01T13:01:45;7.65;;;1.00;;
51949;SDS011;37974;53.218;6.640;2023-08-01T13:04:11;8.32;;;1.60;;
51949;SDS011;37974;53.218;6.640;2023-08-01T13:06:37;3.63;;;0.60;;
51949;SDS011;37974;53.218;6.640;2023-08-01T13:09:04;4.93;;;0.80;;
51949;SDS011;37974;53.218;6.640;2023-08-01T13:11:30;7.82;;;1.15;;
51949;SDS011;37974;53.218;6.640;2023-08-01T13:13:55;10.13;;;1.63;;
51949;SDS011;37974;53.218;6.640;2023-08-01T13:16:21;4.35;;;0.90;;
51949;SDS011;37974;53.218;6.640;2023-08-01T13:18:50;11.10;;;2.20;;
51949;SDS011;37974;53.218;6.640;2023-08-01T13:21:15;5.70;;;0.95;;
51949;SDS011;37974;53.218;6.640;2023-08-01T13:23:41;8.75;;;1.00;;
51949;SDS011;37974;53.218;6.640;2023-08-01T13:26:07;9.32;;;1.30;;
51949;SDS011;37974;53.218;6.640;2023-08-01T13:28:34;13.15;;;1.15;;
51949;SDS011;37974;53.218;6.640;2023-08-01T13:31:00;5.85;;;1.10;;
51949;SDS011;37974;53.218;6.640;2023-08-01T13:33:26;6.95;;;0.98;;
51949;SDS011;37974;53.218;6.640;2023-08-01T13:35:52;9.35;;;1.42;;
51949;SDS011;37974;53.218;6.640;2023-08-01T13:38:18;6.22;;;0.88;;
51949;SDS011;37974;53.218;6.640;2023-08-01T13:40:46;6.82;;;1.25;;
51949;SDS011;37974;53.218;6.640;2023-08-01T13:43:13;9.27;;;1.00;;
51949;SDS011;37974;53.218;6.640;2023-08-01T13:45:40;8.38;;;0.93;;
51949;SDS011;37974;53.218;6.640;2023-08-01T13:48:07;7.85;;;1.55;;
51949;SDS011;37974;53.218;6.640;2023-08-01T13:50:38;6.68;;;1.00;;
51949;SDS011;37974;53.218;6.640;2023-08-01T13:53:07;14.20;;;1.90;;
51949;SDS011;37974;53.218;6.640;2023-08-01T13:55:35;11.45;;;1.13;;
51949;SDS011;37974;53.218;6.640;2023-08-01T13:58:01;9.63;;;1.23;;
51949;SDS011;37974;53.218;6.640;2023-08-01T14:00:27;9.48;;;1.23;;
51949;SDS011;37974;53.218;6.640;2023-08-01T14:02:54;6.78;;;1.20;;
51949;SDS011;37974;53.218;6.640;2023-08-01T14:05:26;6.68;;;1.20;;
51949;SDS011;37974;53.218;6.640;2023-08-01T14:08:15;6.80;;;0.88;;
51949;SDS011;37974;53.218;6.640;2023-08-01T14:10:42;4.43;;;0.95;;
51949;SDS011;37974;53.218;6.640;2023-08-01T14:13:08;5.22;;;0.95;;
51949;SDS011;37974;53.218;6.640;2023-08-01T14:15:33;4.88;;;0.73;;
51949;SDS011;37974;53.218;6.640;2023-08-01T14:18:02;5.68;;;0.68;;
51949;SDS011;37974;53.218;6.640;2023-08-01T14:20:28;6.35;;;0.60;;
51949;SDS011;37974;53.218;6.640;2023-08-01T14:22:54;5.25;;;1.00;;
51949;SDS011;37974;53.218;6.640;2023-08-01T14:25:21;3.67;;;0.88;;
51949;SDS011;37974;53.218;6.640;2023-08-01T14:27:46;8.52;;;0.93;;
51949;SDS011;37974;53.218;6.640;2023-08-01T14:30:14;3.88;;;0.80;;
51949;SDS011;37974;53.218;6.640;2023-08-01T14:32:40;7.75;;;1.05;;
51949;SDS011;37974;53.218;6.640;2023-08-01T14:35:06;9.07;;;1.20;;
51949;SDS011;37974;53.218;6.640;2023-08-01T14:37:32;8.48;;;1.25;;
51949;SDS011;37974;53.218;6.640;2023-08-01T14:39:59;8.23;;;0.93;;
51949;SDS011;37974;53.218;6.640;2023-08-01T14:42:24;7.13;;;1.00;;
51949;SDS011;37974;53.218;6.640;2023-08-01T14:44:53;8.48;;;1.23;;
51949;SDS011;37974;53.218;6.640;2023-08-01T14:47:20;5.28;;;0.63;;